createdAt,value
2022-12-27T00:00:34.781Z,6.12
2022-12-27T00:05:34.760Z,6.06
2022-12-27T00:10:34.762Z,6.06
2022-12-27T00:15:34.757Z,6.06
2022-12-27T00:20:34.855Z,6.12
2022-12-27T00:30:34.748Z,6.12
2022-12-27T00:45:34.813Z,6.18
2022-12-27T00:50:34.723Z,6.18
2022-12-27T01:05:34.747Z,4.81
2022-12-27T01:15:34.745Z,4.62
2022-12-27T01:20:34.761Z,4.62
2022-12-27T01:25:34.747Z,4.56
2022-12-27T01:30:34.694Z,4.37
2022-12-27T01:35:34.698Z,4.18
2022-12-27T01:40:34.704Z,4.06
2022-12-27T01:45:34.727Z,4.06
2022-12-27T01:50:34.679Z,4
2022-12-27T01:55:34.704Z,4.06
2022-12-27T02:00:34.675Z,4
2022-12-27T02:05:34.719Z,3.93
2022-12-27T02:10:34.673Z,4
2022-12-27T02:15:34.692Z,4.06
2022-12-27T02:20:34.654Z,4.06
2022-12-27T02:25:34.705Z,4.18
2022-12-27T02:30:34.722Z,4.25
2022-12-27T02:35:34.695Z,4.18
2022-12-27T02:40:34.679Z,4.25
2022-12-27T02:45:34.657Z,4.25
2022-12-27T02:50:34.633Z,4
2022-12-27T02:55:34.683Z,4
2022-12-27T03:00:34.649Z,3.81
2022-12-27T03:05:34.652Z,3.87
2022-12-27T03:10:34.645Z,3.93
2022-12-27T03:15:34.643Z,4
2022-12-27T03:20:34.640Z,4.18
2022-12-27T03:25:34.655Z,4.31
2022-12-27T03:30:34.677Z,4.43
2022-12-27T03:35:34.622Z,4.43
2022-12-27T03:40:34.651Z,4.43
2022-12-27T03:45:34.704Z,4.37
2022-12-27T03:50:34.610Z,4.31
2022-12-27T03:55:34.621Z,4.18
2022-12-27T04:00:34.606Z,4.18
2022-12-27T04:05:34.601Z,4.06
2022-12-27T04:10:34.625Z,4.18
2022-12-27T04:15:34.600Z,4
2022-12-27T04:20:34.584Z,4
2022-12-27T04:25:34.588Z,3.93
2022-12-27T04:30:34.585Z,3.87
2022-12-27T04:35:34.575Z,3.62
2022-12-27T04:40:34.596Z,3.5
2022-12-27T04:45:34.571Z,3.31
2022-12-27T04:50:34.588Z,3.12
2022-12-27T04:55:34.563Z,2.93
2022-12-27T05:00:34.582Z,2.81
2022-12-27T05:05:34.559Z,2.5
2022-12-27T05:10:34.578Z,2.25
2022-12-27T05:15:34.564Z,2.06
2022-12-27T05:20:34.561Z,1.93
2022-12-27T05:25:34.575Z,1.56
2022-12-27T05:30:34.563Z,1.81
2022-12-27T05:35:34.553Z,2.5
2022-12-27T05:40:34.538Z,2.06
2022-12-27T05:45:34.546Z,1.93
2022-12-27T05:50:34.552Z,1.87
2022-12-27T05:55:34.541Z,2
2022-12-27T06:00:34.543Z,2
2022-12-27T06:05:34.549Z,2
2022-12-27T06:10:34.550Z,1.75
2022-12-27T06:15:34.528Z,1.62
2022-12-27T06:20:34.543Z,1.43
2022-12-27T06:25:34.553Z,1.37
2022-12-27T06:30:36.352Z,1.18
2022-12-27T06:35:34.542Z,1.31
2022-12-27T06:40:34.555Z,0.75
2022-12-27T06:45:34.575Z,1.06
2022-12-27T06:50:34.530Z,0.5
2022-12-27T06:55:34.543Z,0.25
2022-12-27T07:00:34.530Z,0.5
2022-12-27T07:05:34.505Z,0.18
2022-12-27T07:10:34.550Z,0.31
2022-12-27T07:15:34.520Z,0.37
2022-12-27T07:20:34.519Z,-0.18
2022-12-27T07:25:34.539Z,0
2022-12-27T07:30:34.499Z,-0.12
2022-12-27T07:35:34.503Z,0.06
2022-12-27T07:40:34.512Z,0.12
2022-12-27T07:45:34.496Z,0.56
2022-12-27T07:50:34.508Z,0.56
2022-12-27T07:55:34.492Z,1.12
2022-12-27T08:00:34.506Z,1.31
2022-12-27T08:05:34.495Z,1.37
2022-12-27T08:10:34.526Z,1.18
2022-12-27T08:15:34.483Z,1.12
2022-12-27T08:20:34.492Z,1.56
2022-12-27T08:25:34.500Z,1.31
2022-12-27T08:30:34.530Z,1.56
2022-12-27T08:35:51.999Z,2
2022-12-27T08:40:34.492Z,2.12
2022-12-27T08:45:34.504Z,2.5
2022-12-27T08:50:34.489Z,2.43
2022-12-27T08:55:34.474Z,2.75
2022-12-27T09:00:34.495Z,2.5
2022-12-27T09:05:39.716Z,2.68
2022-12-27T09:10:34.486Z,2.87
2022-12-27T09:15:34.486Z,2.81
2022-12-27T09:20:34.449Z,2.93
2022-12-27T09:25:34.508Z,3.37
2022-12-27T09:30:34.455Z,3.25
2022-12-27T09:35:38.346Z,3.5
2022-12-27T09:40:34.445Z,3.5
2022-12-27T09:45:34.440Z,3.62
2022-12-27T09:50:34.460Z,3.37
2022-12-27T09:55:34.452Z,3.93
2022-12-27T10:00:36.013Z,3.87
2022-12-27T10:05:34.471Z,4.06
2022-12-27T10:10:34.452Z,3.93
2022-12-27T10:15:34.587Z,4.06
2022-12-27T10:25:34.418Z,4.43
2022-12-27T10:30:34.414Z,4.5
2022-12-27T10:35:34.429Z,4.56
2022-12-27T10:40:34.737Z,4.62
2022-12-27T10:45:34.432Z,4.56
2022-12-27T10:50:34.414Z,4.87
2022-12-27T10:55:34.425Z,5
2022-12-27T11:00:34.416Z,4.62
2022-12-27T11:05:34.406Z,4.62
2022-12-27T11:10:34.400Z,4.87
2022-12-27T11:15:34.387Z,5
2022-12-27T11:20:34.409Z,4.93
2022-12-27T11:25:34.396Z,5.25
2022-12-27T11:30:34.401Z,5.43
2022-12-27T11:35:34.372Z,5.5
2022-12-27T11:40:34.373Z,5.06
2022-12-27T11:45:34.375Z,5.25
2022-12-27T11:50:34.365Z,5.06
2022-12-27T11:55:34.366Z,5.12
2022-12-27T12:00:34.359Z,5.18
2022-12-27T12:05:34.343Z,5.25
2022-12-27T12:10:34.353Z,5.37
2022-12-27T12:15:34.349Z,5.56
2022-12-27T12:20:34.369Z,5.56
2022-12-27T12:25:34.353Z,5.68
2022-12-27T12:30:34.343Z,5.5
2022-12-27T12:35:34.350Z,5.5
2022-12-27T12:40:34.341Z,5
2022-12-27T12:45:34.402Z,5.18
2022-12-27T12:50:34.334Z,5
2022-12-27T12:55:38.420Z,5.12
2022-12-27T13:00:34.314Z,5.06
2022-12-27T13:05:34.351Z,4.75
2022-12-27T13:10:34.313Z,4.56
2022-12-27T13:15:34.314Z,4.31
2022-12-27T13:20:34.306Z,4.37
2022-12-27T13:25:34.322Z,4.62
2022-12-27T13:30:34.341Z,4.93
2022-12-27T13:35:34.290Z,4.93
2022-12-27T13:40:34.292Z,5.12
2022-12-27T13:45:34.315Z,5.25
2022-12-27T13:50:34.295Z,5.12
2022-12-27T13:55:34.287Z,5.18
2022-12-27T14:00:34.321Z,5.31
2022-12-27T14:05:34.271Z,5.06
2022-12-27T14:10:34.268Z,4.87
2022-12-27T14:15:34.323Z,5
2022-12-27T14:20:34.264Z,4.87
2022-12-27T14:25:34.260Z,4.68
2022-12-27T14:30:34.286Z,4.43
2022-12-27T14:35:34.255Z,4.31
2022-12-27T14:40:35.099Z,3.87
2022-12-27T14:45:34.239Z,3.68
2022-12-27T14:50:34.250Z,3.81
2022-12-27T14:55:34.248Z,3.43
2022-12-27T15:00:34.233Z,2.87
2022-12-27T15:15:34.272Z,2.5
2022-12-27T15:25:34.233Z,2.18
2022-12-27T15:30:34.201Z,2.06
2022-12-27T15:40:34.210Z,1.87
2022-12-27T16:00:34.747Z,1.87
2022-12-27T16:05:34.201Z,1.75
2022-12-27T16:10:34.209Z,2.06
2022-12-27T16:15:34.203Z,1.87
2022-12-27T16:20:34.192Z,1.56
2022-12-27T16:25:34.173Z,1.93
2022-12-27T16:30:34.195Z,0.81
2022-12-27T16:35:34.190Z,1.12
2022-12-27T16:40:34.193Z,0.93
2022-12-27T16:45:34.177Z,1.18
2022-12-27T16:55:34.179Z,1.75
2022-12-27T17:00:34.195Z,1.68
2022-12-27T17:05:34.189Z,1.25
2022-12-27T17:10:34.183Z,0.62
2022-12-27T17:15:34.166Z,0.93
2022-12-27T17:20:34.177Z,1
2022-12-27T17:25:34.174Z,0.43
2022-12-27T17:30:34.161Z,0.87
2022-12-27T17:35:34.163Z,0.43
2022-12-27T17:40:34.177Z,0.93
2022-12-27T17:45:34.237Z,0.87
2022-12-27T17:50:34.172Z,0.56
2022-12-27T17:55:34.297Z,1.31
2022-12-27T18:00:34.166Z,0.93
2022-12-27T18:05:34.156Z,1.18
2022-12-27T18:10:34.137Z,0.43
2022-12-27T18:15:34.147Z,0.43
2022-12-27T18:20:34.142Z,1.12
2022-12-27T18:25:34.199Z,1.5
2022-12-27T18:30:34.157Z,1.31
2022-12-27T18:35:34.130Z,1.56
2022-12-27T18:40:34.144Z,1.12
2022-12-27T18:45:34.155Z,1.43
2022-12-27T18:50:34.162Z,1.56
2022-12-27T18:55:34.141Z,1.12
2022-12-27T19:00:34.123Z,0.62
2022-12-27T19:05:34.110Z,0.5
2022-12-27T19:10:34.120Z,0.93
2022-12-27T19:15:34.110Z,0.62
2022-12-27T19:20:34.127Z,1
2022-12-27T19:25:34.107Z,0.62
2022-12-27T19:30:34.122Z,0.56
2022-12-27T19:35:34.115Z,0.81
2022-12-27T19:40:34.107Z,0.75
2022-12-27T19:45:34.126Z,1
2022-12-27T19:50:34.112Z,1
2022-12-27T19:55:34.096Z,1.56
2022-12-27T20:00:34.116Z,1.43
2022-12-27T20:06:12.245Z,1
2022-12-27T20:10:34.095Z,1.18
2022-12-27T20:15:34.109Z,0.93
2022-12-27T20:20:34.106Z,1.06
2022-12-27T20:25:34.101Z,1.06
2022-12-27T20:30:34.106Z,1.12
2022-12-27T20:35:34.133Z,0.81
2022-12-27T20:45:34.149Z,0.62
2022-12-27T20:50:34.083Z,0.68
2022-12-27T20:55:34.081Z,0.75
2022-12-27T21:00:34.057Z,0.43
2022-12-27T21:05:34.085Z,0.68
2022-12-27T21:10:34.076Z,0.12
2022-12-27T21:15:38.848Z,0.18
2022-12-27T21:20:34.084Z,0.12
2022-12-27T21:25:34.096Z,-0.43
2022-12-27T21:30:34.107Z,-0.12
2022-12-27T21:35:34.080Z,-0.25
2022-12-27T21:40:34.047Z,-0.25
2022-12-27T21:45:34.075Z,-0.43
2022-12-27T21:50:37.331Z,-0.31
2022-12-27T21:55:34.053Z,-0.37
2022-12-27T22:00:34.051Z,-0.68
2022-12-27T22:05:34.065Z,-0.56
2022-12-27T22:10:34.085Z,-0.68
2022-12-27T22:15:34.136Z,-0.25
2022-12-27T22:20:34.052Z,-0.31
2022-12-27T22:25:34.044Z,-0.06
2022-12-27T22:30:34.053Z,-0.81
2022-12-27T22:35:34.052Z,-1.06
2022-12-27T22:40:37.483Z,-0.87
2022-12-27T22:45:34.065Z,-0.43
2022-12-27T22:50:34.079Z,-0.5
2022-12-27T22:55:34.059Z,-0.37
2022-12-27T23:00:34.062Z,0
2022-12-27T23:05:34.049Z,-0.87
2022-12-27T23:10:34.026Z,-1.12
2022-12-27T23:15:34.031Z,-1.12
2022-12-27T23:20:34.066Z,-1.12
2022-12-27T23:25:34.038Z,-0.75
2022-12-27T23:30:34.046Z,-0.81
2022-12-27T23:35:34.032Z,-0.31
2022-12-27T23:40:34.054Z,-0.37
2022-12-27T23:45:34.029Z,-0.87
2022-12-27T23:50:34.041Z,-0.68
2022-12-27T23:55:34.028Z,-0.87
